Pinon Hills, CA (92372)

10:26 AM PDT on July 25, 2016 (GMT -0700)
KCAPINON2 | | Change Station

Elev 4724 ft 34.41 °N, 117.62 °W | Updated 1 minute ago

Partly Cloudy
Partly Cloudy
88.0 °F
Feels Like 85 °F
N
6.8
Wind Variable Wind from SSE

Today
High -- | Low -- °F
--% Chance of Precip.
Yesterday
High -- | Low -- °F
Precip. -- in
Pressure 29.85 in
Visibility 10.0 miles
Clouds Few 24000 ft
Heat Index 85 °F
Dew Point 42 °F
Humidity 20%
Rainfall 0.00 in
Snow Depth Not available.
5:56 AM 7:57 PM
Waning Gibbous, 64% visible
METAR KGXA 251655Z AUTO VRB03KT 10SM FEW240 35/01 A3004 RMK AO2 SLP106 WND DATA ESTMD T03480005 $
Pressure 29.85 in
Visibility 10.0 miles
Clouds Few 24000 ft
Heat Index 85 °F
Dew Point 42 °F
Humidity 20%
Rainfall 0.00 in
Snow Depth Not available.
5:56 AM 7:57 PM
Waning Gibbous, 64% visible
METAR KGXA 251655Z AUTO VRB03KT 10SM FEW240 35/01 A3004 RMK AO2 SLP106 WND DATA ESTMD T03480005 $

10-Day Weather Forecast

Almanac

Astronomy

Jul. 25, 2016 Rise Set
Actual Time
Civil Twilight
Nautical Twilight
Astronomical Twilight
Moon
Length of Visible Light
Length of Day
Tomorrow will be .
, % of the Moon is Illuminated

Today's Extremes

State Highs State Lows

Community

WunderPhotos

Upload Photos

1,927,363 photos uploaded!

WunderBlog® & News

Nearby

Air Quality

  Air Quality AQ Index Pollutant
Not available.

Snow Depth

Station Depth Elevation

Earthquake Activity

City Distance Mag. Time & Date
Minimum magnitude displayed is 2.5.

Coastal Water Temperatures

Place Temperature

Stations

Nearby Weather Stations

Station Location Temp. Windchill Dew Point Humidity Wind Precip. Elev Updated Type
                   

Watches & Warnings

There are currently no watches in effect.